Time;durP1;ratioP1;P1;durP2;ratioP2;P2;SDS_P1;SDS_P2;PMS_P1;PMS_P2;Temp;Humidity;BMP_temperature;BMP_pressure;BME280_temperature;BME280_humidity;BME280_pressure;Samples;Min_cycle;Max_cycle;Signal;HPM_P1;HPM_P2
2022/04/18 00:00:24;;;;;;;0.00;0.00;;;9.60;53.40;;;;;;4182534;28;20071;-69
2022/04/18 00:02:47;;;;;;;0.00;0.00;;;9.40;54.10;;;;;;4168847;28;20434;-69
2022/04/18 00:05:09;;;;;;;0.00;0.00;;;9.30;54.40;;;;;;4182802;28;20060;-68
2022/04/18 00:07:33;;;;;;;0.00;0.00;;;9.50;54.40;;;;;;4182744;28;20041;-68
2022/04/18 00:09:55;;;;;;;0.00;0.00;;;9.60;54.30;;;;;;4182848;28;20414;-68
2022/04/18 00:12:20;;;;;;;0.00;0.00;;;9.50;54.20;;;;;;4168852;28;20067;-69
2022/04/18 00:14:45;;;;;;;0.00;0.00;;;9.50;54.50;;;;;;4168371;28;20045;-69
2022/04/18 00:17:10;;;;;;;0.00;0.00;;;9.60;54.80;;;;;;4182798;28;20056;-70
2022/04/18 00:19:31;;;;;;;0.00;0.00;;;9.60;54.80;;;;;;4182835;28;20122;-72
2022/04/18 00:21:53;;;;;;;0.00;0.00;;;9.60;54.60;;;;;;4182774;28;20045;-69
2022/04/18 00:24:17;;;;;;;0.00;0.00;;;9.80;54.30;;;;;;4182687;28;20048;-69
2022/04/18 00:26:42;;;;;;;0.00;0.00;;;9.80;53.90;;;;;;4182233;28;20090;-69
2022/04/18 00:29:06;;;;;;;0.00;0.00;;;9.90;53.90;;;;;;4182655;28;20123;-70
2022/04/18 00:31:32;;;;;;;0.00;0.00;;;9.90;54.40;;;;;;4168578;28;20145;-69
2022/04/18 00:33:56;;;;;;;0.00;0.00;;;9.90;54.30;;;;;;4182529;28;20072;-70
2022/04/18 00:36:20;;;;;;;0.00;0.00;;;10.00;54.00;;;;;;4154949;28;20111;-73
2022/04/18 00:38:45;;;;;;;0.00;0.00;;;9.90;53.70;;;;;;4181599;28;20041;-70
2022/04/18 00:41:11;;;;;;;0.00;0.00;;;9.90;53.60;;;;;;4182521;28;20469;-70
2022/04/18 00:43:47;;;;;;;0.00;0.00;;;9.90;53.60;;;;;;4182168;28;20135;-72
2022/04/18 00:46:10;;;;;;;0.00;0.00;;;9.90;53.80;;;;;;4182308;28;20088;-69
2022/04/18 00:48:35;;;;;;;0.00;0.00;;;9.80;54.30;;;;;;4154755;28;20069;-68
2022/04/18 00:50:57;;;;;;;0.00;0.00;;;9.80;54.40;;;;;;4181825;28;20579;-73
2022/04/18 00:53:19;;;;;;;0.00;0.00;;;9.80;54.20;;;;;;4182232;28;20545;-70
2022/04/18 00:55:44;;;;;;;0.00;0.00;;;9.70;53.80;;;;;;4182254;28;20388;-71
2022/04/18 00:58:06;;;;;;;0.00;0.00;;;9.70;54.00;;;;;;4168584;28;20377;-69
2022/04/18 01:00:30;;;;;;;0.00;0.00;;;9.80;54.10;;;;;;4181984;28;20118;-70
2022/04/18 01:02:55;;;;;;;0.00;0.00;;;9.80;54.00;;;;;;4167809;28;20131;-71
2022/04/18 01:05:19;;;;;;;0.00;0.00;;;9.80;54.00;;;;;;4167937;28;20045;-68
2022/04/18 01:07:44;;;;;;;0.00;0.00;;;9.80;53.90;;;;;;4182123;28;20371;-69
2022/04/18 01:10:07;;;;;;;0.00;0.00;;;9.80;53.90;;;;;;4168213;28;20098;-68
2022/04/18 01:12:34;;;;;;;0.00;0.00;;;9.80;53.80;;;;;;4181878;28;20063;-71
2022/04/18 01:15:02;;;;;;;0.00;0.00;;;9.70;53.80;;;;;;4167451;28;20065;-68
2022/04/18 01:17:57;;;;;;;0.00;0.00;;;9.70;53.80;;;;;;4172077;28;20051;-69
2022/04/18 01:20:34;;;;;;;0.00;0.00;;;9.60;53.90;;;;;;4167691;28;20148;-69
2022/04/18 01:23:09;;;;;;;0.00;0.00;;;9.50;54.10;;;;;;4167413;28;20057;-68
2022/04/18 01:31:12;;;;;;;0.00;0.00;;;9.30;54.40;;;;;;4181083;28;20399;-71
2022/04/18 01:33:35;;;;;;;0.00;0.00;;;9.30;54.60;;;;;;4167693;28;20037;-71
2022/04/18 01:36:00;;;;;;;0.00;0.00;;;9.20;54.70;;;;;;4167434;28;20432;-70
2022/04/18 01:38:26;;;;;;;0.00;0.00;;;9.10;54.80;;;;;;4154191;28;20041;-70
2022/04/18 01:40:48;;;;;;;0.00;0.00;;;9.00;55.00;;;;;;4167258;28;20045;-71
2022/04/18 01:43:13;;;;;;;0.00;0.00;;;9.00;55.10;;;;;;4195208;28;20519;-70
2022/04/18 01:45:37;;;;;;;0.00;0.00;;;9.00;55.40;;;;;;4181103;28;20048;-69
2022/04/18 01:48:07;;;;;;;0.00;0.00;;;9.00;55.40;;;;;;4181353;28;20068;-70
2022/04/18 01:50:31;;;;;;;0.00;0.00;;;8.90;55.50;;;;;;4166621;28;20095;-70
2022/04/18 01:52:53;;;;;;;0.00;0.00;;;9.00;55.50;;;;;;4181060;28;20162;-68
2022/04/18 01:55:17;;;;;;;0.00;0.00;;;9.10;55.50;;;;;;4181440;28;20040;-71
2022/04/18 01:57:45;;;;;;;0.00;0.00;;;9.10;55.50;;;;;;4167187;28;20057;-70
2022/04/18 02:00:08;;;;;;;0.00;0.00;;;9.10;55.60;;;;;;4180820;28;20557;-72
2022/04/18 02:02:36;;;;;;;0.00;0.00;;;9.10;55.40;;;;;;4181768;28;20154;-69
2022/04/18 02:05:01;;;;;;;0.00;0.00;;;9.20;55.30;;;;;;4180639;28;20135;-70
2022/04/18 02:07:25;;;;;;;0.00;0.00;;;9.20;55.30;;;;;;4181060;28;20049;-71
2022/04/18 02:09:50;;;;;;;0.00;0.00;;;9.10;55.40;;;;;;4194886;28;20053;-71
2022/04/18 02:12:13;;;;;;;0.00;0.00;;;9.20;55.50;;;;;;4180711;28;20052;-70
2022/04/18 02:14:47;;;;;;;0.00;0.00;;;9.20;55.50;;;;;;4180402;28;20080;-69
2022/04/18 02:17:10;;;;;;;0.00;0.00;;;9.30;55.50;;;;;;4180545;28;20438;-72
2022/04/18 02:19:32;;;;;;;0.00;0.00;;;9.30;55.50;;;;;;4153454;28;20038;-72
2022/04/18 02:21:54;;;;;;;0.00;0.00;;;9.20;56.10;;;;;;4180694;28;20049;-70
2022/04/18 02:24:19;;;;;;;0.00;0.00;;;9.20;56.30;;;;;;4180651;28;20045;-70
2022/04/18 02:26:41;;;;;;;0.00;0.00;;;9.10;55.90;;;;;;4180435;28;20053;-67
2022/04/18 02:29:08;;;;;;;0.00;0.00;;;9.00;56.10;;;;;;4166909;28;20053;-69
2022/04/18 02:31:31;;;;;;;0.00;0.00;;;8.90;56.20;;;;;;4166851;28;20073;-70
2022/04/18 02:33:55;;;;;;;0.00;0.00;;;8.90;56.30;;;;;;4180989;28;20075;-68
2022/04/18 02:36:18;;;;;;;0.00;0.00;;;8.90;56.50;;;;;;4153124;28;20045;-70
2022/04/18 02:38:40;;;;;;;0.00;0.00;;;8.90;56.70;;;;;;4180211;28;20045;-69
2022/04/18 02:41:02;;;;;;;0.00;0.00;;;8.90;56.60;;;;;;4166869;28;20041;-70
2022/04/18 02:43:32;;;;;;;0.00;0.00;;;8.90;56.50;;;;;;4194518;28;20053;-69
2022/04/18 02:46:02;;;;;;;0.00;0.00;;;9.00;56.50;;;;;;4180538;28;20045;-71
2022/04/18 02:48:43;;;;;;;0.00;0.00;;;9.00;56.70;;;;;;4166367;28;20049;-71
2022/04/18 02:51:08;;;;;;;0.00;0.00;;;8.90;57.00;;;;;;4180477;28;20056;-68
2022/04/18 02:53:31;;;;;;;0.00;0.00;;;8.90;57.30;;;;;;4166653;28;20042;-71
2022/04/18 02:56:03;;;;;;;0.00;0.00;;;8.90;58.10;;;;;;4180591;28;20033;-69
2022/04/18 02:58:27;;;;;;;0.00;0.00;;;8.90;57.60;;;;;;4180612;28;20053;-71
2022/04/18 03:00:51;;;;;;;0.00;0.00;;;8.90;57.60;;;;;;4166747;28;20049;-70
2022/04/18 03:03:18;;;;;;;0.00;0.00;;;8.80;57.60;;;;;;4184338;28;20355;-72
2022/04/18 03:05:41;;;;;;;0.00;0.00;;;8.80;57.60;;;;;;4170290;28;20048;-71
2022/04/18 03:08:07;;;;;;;0.00;0.00;;;8.80;57.80;;;;;;4183808;28;20060;-70
2022/04/18 03:13:18;;;;;;;0.00;0.00;;;8.80;58.20;;;;;;4183373;28;20056;-67
2022/04/18 03:15:41;;;;;;;0.00;0.00;;;8.70;58.20;;;;;;4169857;28;20093;-69
2022/04/18 03:18:03;;;;;;;0.00;0.00;;;8.80;58.20;;;;;;4183348;28;20044;-71
2022/04/18 03:20:25;;;;;;;0.00;0.00;;;8.70;58.30;;;;;;4183443;28;20064;-71
2022/04/18 03:22:50;;;;;;;0.00;0.00;;;8.60;58.50;;;;;;4169251;28;20436;-72
2022/04/18 03:25:26;;;;;;;0.00;0.00;;;8.60;58.70;;;;;;4183491;28;20052;-69
2022/04/18 03:27:52;;;;;;;0.00;0.00;;;8.60;58.80;;;;;;4197451;28;20068;-72
2022/04/18 03:30:17;;;;;;;0.00;0.00;;;8.50;59.00;;;;;;4183446;28;20087;-69
2022/04/18 03:32:42;;;;;;;0.00;0.00;;;8.60;59.10;;;;;;4183086;28;20379;-71
2022/04/18 03:35:07;;;;;;;0.00;0.00;;;8.50;59.10;;;;;;4156178;28;20060;-69
2022/04/18 03:40:11;;;;;;;0.00;0.00;;;8.40;59.20;;;;;;4183272;28;20142;-71
2022/04/18 03:42:36;;;;;;;0.00;0.00;;;8.40;59.30;;;;;;4183343;28;20066;-74
2022/04/18 03:45:04;;;;;;;0.00;0.00;;;8.40;59.40;;;;;;4168947;28;20084;-71
2022/04/18 03:47:27;;;;;;;0.00;0.00;;;8.40;59.50;;;;;;4183253;28;20128;-73
2022/04/18 03:49:51;;;;;;;0.00;0.00;;;8.30;59.70;;;;;;4183125;28;20048;-68
2022/04/18 03:52:13;;;;;;;0.00;0.00;;;8.20;60.00;;;;;;4169160;28;20048;-74
2022/04/18 03:54:40;;;;;;;0.00;0.00;;;8.10;60.10;;;;;;4183052;28;20053;-69
2022/04/18 03:57:07;;;;;;;0.00;0.00;;;8.00;60.40;;;;;;4182532;28;20494;-69
2022/04/18 03:59:35;;;;;;;0.00;0.00;;;7.90;60.80;;;;;;4182613;28;20057;-67
2022/04/18 04:01:59;;;;;;;0.00;0.00;;;7.80;60.90;;;;;;4168991;28;20048;-70
2022/04/18 04:04:24;;;;;;;0.00;0.00;;;7.80;61.00;;;;;;4183340;28;20037;-70
2022/04/18 04:06:54;;;;;;;0.00;0.00;;;7.80;61.10;;;;;;4182509;28;20060;-72
2022/04/18 04:09:16;;;;;;;0.00;0.00;;;7.90;61.00;;;;;;4155260;28;20136;-69
2022/04/18 04:11:40;;;;;;;0.00;0.00;;;8.00;60.90;;;;;;4169020;28;20037;-69
2022/04/18 04:14:03;;;;;;;0.00;0.00;;;8.10;60.70;;;;;;4154442;28;20388;-71
2022/04/18 04:16:31;;;;;;;0.00;0.00;;;8.10;60.40;;;;;;4168999;28;20258;-72
2022/04/18 04:18:55;;;;;;;0.00;0.00;;;8.10;60.40;;;;;;4168453;28;20080;-72
2022/04/18 04:21:20;;;;;;;0.00;0.00;;;8.10;60.10;;;;;;4182711;28;20089;-69
2022/04/18 04:23:43;;;;;;;0.00;0.00;;;8.20;59.90;;;;;;4196522;28;20052;-69
2022/04/18 04:26:14;;;;;;;;;;;8.00;59.70;;;;;;4182968;28;20041;-69
2022/04/18 04:28:42;;;;;;;0.00;0.00;;;7.90;60.00;;;;;;4169304;28;19931;-72
2022/04/18 04:31:08;;;;;;;0.00;0.00;;;7.70;60.20;;;;;;4182882;28;20474;-72
2022/04/18 04:33:33;;;;;;;0.00;0.00;;;7.70;60.30;;;;;;4168991;28;20046;-70
2022/04/18 04:35:59;;;;;;;0.00;0.00;;;7.70;60.50;;;;;;4182793;28;20091;-69
2022/04/18 04:38:23;;;;;;;0.00;0.00;;;7.70;60.50;;;;;;4169135;28;20045;-69
2022/04/18 04:40:53;;;;;;;0.00;0.00;;;7.70;60.50;;;;;;4182188;28;20045;-68
2022/04/18 04:43:34;;;;;;;0.00;0.00;;;7.70;60.50;;;;;;4168894;28;20111;-71
2022/04/18 04:46:00;;;;;;;0.00;0.00;;;7.70;60.40;;;;;;4168535;28;20042;-69
2022/04/18 04:48:27;;;;;;;0.00;0.00;;;7.70;60.70;;;;;;4182728;28;20080;-71
2022/04/18 04:50:59;;;;;;;0.00;0.00;;;7.60;60.80;;;;;;4182296;28;20041;-70
2022/04/18 04:53:21;;;;;;;0.00;0.00;;;7.60;61.00;;;;;;4196724;28;20724;-71
2022/04/18 04:55:43;;;;;;;0.00;0.00;;;7.60;61.10;;;;;;4169046;28;20712;-70
2022/04/18 04:58:10;;;;;;;0.00;0.00;;;7.70;61.20;;;;;;4182555;28;20048;-70
2022/04/18 05:01:07;;;;;;;0.00;0.00;;;7.50;61.60;;;;;;4181402;28;20094;-71
2022/04/18 05:03:54;;;;;;;0.00;0.00;;;7.50;61.90;;;;;;4154754;28;20113;-69
2022/04/18 05:06:21;;;;;;;0.00;0.00;;;7.60;61.70;;;;;;4154584;28;20042;-68
2022/04/18 05:08:44;;;;;;;0.00;0.00;;;7.70;61.60;;;;;;4181964;28;20048;-69
2022/04/18 05:11:09;;;;;;;0.00;0.00;;;7.70;61.60;;;;;;4182473;28;20045;-69
2022/04/18 05:13:52;;;;;;;0.00;0.00;;;7.70;61.60;;;;;;4171392;28;20128;-72
2022/04/18 05:16:21;;;;;;;0.00;0.00;;;7.70;61.40;;;;;;4168651;28;20056;-68
2022/04/18 05:19:04;;;;;;;0.00;0.00;;;7.80;61.20;;;;;;4181855;28;20800;-70
2022/04/18 05:21:26;;;;;;;0.00;0.00;;;7.90;61.30;;;;;;4168255;28;20053;-69
2022/04/18 05:23:55;;;;;;;0.00;0.00;;;8.00;61.30;;;;;;4155153;28;20065;-69
2022/04/18 05:26:17;;;;;;;0.00;0.00;;;8.00;61.50;;;;;;4181279;28;20410;-70
2022/04/18 05:28:42;;;;;;;0.00;0.00;;;8.20;61.60;;;;;;4154101;28;20047;-67
2022/04/18 05:31:04;;;;;;;0.00;0.00;;;8.40;61.30;;;;;;4167969;28;20060;-70
2022/04/18 05:33:28;;;;;;;0.00;0.00;;;8.50;61.00;;;;;;4195790;28;20052;-68
2022/04/18 05:36:12;;;;;;;0.00;0.00;;;8.40;61.20;;;;;;4184600;28;20150;-70
2022/04/18 05:38:34;;;;;;;0.00;0.00;;;8.50;61.20;;;;;;4154358;28;20037;-73
2022/04/18 05:41:16;;;;;;;0.00;0.00;;;8.70;61.00;;;;;;4181394;28;20098;-71
2022/04/18 05:43:40;;;;;;;0.00;0.00;;;8.70;60.90;;;;;;4195617;28;20044;-72
2022/04/18 05:46:06;;;;;;;0.00;0.00;;;8.50;61.10;;;;;;4168586;28;20099;-69
2022/04/18 05:48:31;;;;;;;0.00;0.00;;;8.50;61.20;;;;;;4167620;28;20056;-69
2022/04/18 05:50:54;;;;;;;0.00;0.00;;;8.60;61.40;;;;;;4167248;28;20139;-69
2022/04/18 05:53:28;;;;;;;0.00;0.00;;;8.80;60.90;;;;;;4195590;28;20059;-68
2022/04/18 05:55:59;;;;;;;0.00;0.00;;;9.00;60.40;;;;;;4181881;28;20044;-72
2022/04/18 05:58:34;;;;;;;0.00;0.00;;;9.20;60.50;;;;;;4169224;28;20052;-72
2022/04/18 06:01:04;;;;;;;0.00;0.00;;;9.50;60.00;;;;;;4168681;28;20052;-71
2022/04/18 06:03:31;;;;;;;0.00;0.00;;;9.60;59.70;;;;;;4174119;28;20053;-70
2022/04/18 06:05:54;;;;;;;0.00;0.00;;;9.70;59.80;;;;;;4167869;28;20136;-72
2022/04/18 06:08:16;;;;;;;0.00;0.00;;;9.50;60.50;;;;;;4181259;28;20045;-69
2022/04/18 06:10:46;;;;;;;0.00;0.00;;;9.30;61.40;;;;;;4194685;28;20101;-72
2022/04/18 06:13:30;;;;;;;0.00;0.00;;;9.40;61.60;;;;;;4167331;28;20140;-69
2022/04/18 06:15:54;;;;;;;0.00;0.00;;;9.60;60.50;;;;;;4181425;28;20061;-69
2022/04/18 06:18:19;;;;;;;0.00;0.00;;;9.70;60.10;;;;;;4153700;28;20465;-69
2022/04/18 06:20:48;;;;;;;0.00;0.00;;;9.90;60.10;;;;;;4167875;28;20099;-70
2022/04/18 06:23:10;;;;;;;0.00;0.00;;;10.00;59.60;;;;;;4167185;28;20034;-70
2022/04/18 06:25:34;;;;;;;0.00;0.00;;;10.00;59.70;;;;;;4181162;28;20049;-70
2022/04/18 06:27:59;;;;;;;0.00;0.00;;;10.00;59.90;;;;;;4181079;28;20055;-70
2022/04/18 06:30:31;;;;;;;0.00;0.00;;;10.20;59.70;;;;;;4181025;28;20491;-71
2022/04/18 06:33:24;;;;;;;0.00;0.00;;;10.10;59.50;;;;;;4157010;28;20041;-70
2022/04/18 06:35:46;;;;;;;0.00;0.00;;;10.10;59.90;;;;;;4180467;28;20045;-71
2022/04/18 06:38:09;;;;;;;0.00;0.00;;;10.20;60.20;;;;;;4194757;28;20044;-69
2022/04/18 06:41:03;;;;;;;0.00;0.00;;;10.10;61.30;;;;;;4166771;28;20044;-69
2022/04/18 06:43:29;;;;;;;0.00;0.00;;;10.30;61.40;;;;;;4166996;28;20076;-69
2022/04/18 06:45:54;;;;;;;0.00;0.00;;;10.20;61.50;;;;;;4180803;28;20133;-71
2022/04/18 06:48:20;;;;;;;0.00;0.00;;;9.90;62.60;;;;;;4194784;28;20422;-71
2022/04/18 06:51:05;;;;;;;0.00;0.00;;;9.70;64.00;;;;;;4150363;28;20071;-68
2022/04/18 06:53:51;;;;;;;0.00;0.00;;;10.20;63.80;;;;;;4169690;28;20051;-72
2022/04/18 06:59:19;;;;;;;0.00;0.00;;;11.00;61.70;;;;;;4179923;28;20092;-70
2022/04/18 07:01:44;;;;;;;0.00;0.00;;;10.70;62.50;;;;;;4153458;28;20354;-69
2022/04/18 07:04:07;;;;;;;0.00;0.00;;;10.90;63.00;;;;;;4180815;28;20040;-69
2022/04/18 07:06:34;;;;;;;0.00;0.00;;;11.10;61.80;;;;;;4180774;28;20045;-71
2022/04/18 07:09:00;;;;;;;0.00;0.00;;;10.90;60.80;;;;;;4180276;28;20086;-68
2022/04/18 07:11:45;;;;;;;0.00;0.00;;;10.90;61.70;;;;;;4180835;28;20051;-70
2022/04/18 07:14:12;;;;;;;0.00;0.00;;;11.20;61.10;;;;;;4166686;28;20061;-72
2022/04/18 07:16:37;;;;;;;0.00;0.00;;;11.50;59.80;;;;;;4167148;28;20096;-69
2022/04/18 07:19:00;;;;;;;0.00;0.00;;;11.70;59.60;;;;;;4166274;28;20118;-73
2022/04/18 07:21:22;;;;;;;0.00;0.00;;;12.00;58.90;;;;;;4167137;28;20080;-71
2022/04/18 07:23:47;;;;;;;0.00;0.00;;;11.90;58.00;;;;;;4180787;28;20447;-69
2022/04/18 07:26:11;;;;;;;0.00;0.00;;;11.90;57.40;;;;;;4166659;28;20042;-71
2022/04/18 07:28:38;;;;;;;0.00;0.00;;;11.90;56.70;;;;;;4153032;28;20038;-71
2022/04/18 07:31:03;;;;;;;0.00;0.00;;;11.80;56.40;;;;;;4180175;28;20045;-72
2022/04/18 07:33:25;;;;;;;0.00;0.00;;;11.90;56.90;;;;;;4166903;28;20104;-71
2022/04/18 07:35:48;;;;;;;0.00;0.00;;;12.20;56.70;;;;;;4180373;28;20041;-71
2022/04/18 07:40:53;;;;;;;0.00;0.00;;;12.30;56.60;;;;;;4152686;28;20056;-72
2022/04/18 07:43:18;;;;;;;0.00;0.00;;;12.60;56.50;;;;;;4180801;28;20136;-69
2022/04/18 07:45:42;;;;;;;0.00;0.00;;;12.70;54.90;;;;;;4166527;28;20125;-73
2022/04/18 07:48:06;;;;;;;0.00;0.00;;;12.60;55.80;;;;;;4180799;28;20037;-70
2022/04/18 07:51:32;;;;;;;0.00;0.00;;;12.60;56.40;;;;;;4183511;28;20041;-70
2022/04/18 07:53:10;;;;;;;0.00;0.00;;;12.40;55.90;;;;;;4169214;28;20054;-71
2022/04/18 07:55:36;;;;;;;0.00;0.00;;;12.80;55.90;;;;;;4183552;28;20045;-73
2022/04/18 07:57:58;;;;;;;0.00;0.00;;;13.10;55.60;;;;;;4183449;28;20395;-71
2022/04/18 08:00:20;;;;;;;0.00;0.00;;;13.20;55.30;;;;;;4197009;28;20048;-73
2022/04/18 08:02:52;;;;;;;0.00;0.00;;;13.50;55.10;;;;;;4183142;28;20460;-73
2022/04/18 08:05:34;;;;;;;0.00;0.00;;;13.40;54.60;;;;;;4170826;28;20048;-73
2022/04/18 08:08:04;;;;;;;0.00;0.00;;;13.40;54.20;;;;;;4169643;28;20443;-70
2022/04/18 08:10:26;;;;;;;0.00;0.00;;;13.50;53.80;;;;;;4183199;28;20090;-74
2022/04/18 08:12:51;;;;;;;0.00;0.00;;;13.60;54.10;;;;;;4182954;28;20053;-71
2022/04/18 08:15:34;;;;;;;0.00;0.00;;;13.50;53.90;;;;;;4183107;28;20146;-70
2022/04/18 08:17:57;;;;;;;0.00;0.00;;;13.50;53.70;;;;;;4183241;28;20059;-72
2022/04/18 08:20:37;;;;;;;0.00;0.00;;;13.30;53.60;;;;;;4183069;28;20053;-71
2022/04/18 08:23:02;;;;;;;0.00;0.00;;;13.30;54.00;;;;;;4168826;28;20049;-68
2022/04/18 08:25:44;;;;;;;0.00;0.00;;;13.40;54.20;;;;;;4175280;28;20045;-70
2022/04/18 08:28:29;;;;;;;0.00;0.00;;;13.50;54.20;;;;;;4183065;28;20041;-71
2022/04/18 08:30:51;;;;;;;0.00;0.00;;;13.50;54.00;;;;;;4183221;28;20102;-70
2022/04/18 08:33:25;;;;;;;0.00;0.00;;;13.50;54.00;;;;;;4183830;28;20041;-71
2022/04/18 08:35:50;;;;;;;0.00;0.00;;;13.60;53.90;;;;;;4183387;28;20065;-72
2022/04/18 08:38:13;;;;;;;0.00;0.00;;;13.70;53.70;;;;;;4156274;28;20364;-70
2022/04/18 08:40:57;;;;;;;0.00;0.00;;;13.70;53.40;;;;;;4183000;28;20072;-72
2022/04/18 08:43:24;;;;;;;0.00;0.00;;;13.60;53.40;;;;;;4169716;28;20046;-73
2022/04/18 08:45:47;;;;;;;0.00;0.00;;;13.50;53.60;;;;;;4197400;28;20032;-73
2022/04/18 08:53:36;;;;;;;0.00;0.00;;;13.60;53.70;;;;;;4183559;28;20474;-73
2022/04/18 08:56:00;;;;;;;0.00;0.00;;;13.60;54.20;;;;;;4183466;28;20041;-71
2022/04/18 08:58:30;;;;;;;0.00;0.00;;;13.70;54.00;;;;;;4169574;28;20420;-72
2022/04/18 09:00:54;;;;;;;0.00;0.00;;;13.80;53.40;;;;;;4182845;28;20052;-73
2022/04/18 09:03:35;;;;;;;0.00;0.00;;;13.80;53.00;;;;;;4165936;28;20038;-75
2022/04/18 09:06:10;;;;;;;0.00;0.00;;;13.80;53.30;;;;;;4150284;28;20046;-74
2022/04/18 09:08:46;;;;;;;0.00;0.00;;;13.80;53.80;;;;;;4152918;28;20046;-74
2022/04/18 09:11:10;;;;;;;0.00;0.00;;;13.80;53.30;;;;;;4151357;28;20045;-71
2022/04/18 09:13:43;;;;;;;0.00;0.00;;;13.80;53.50;;;;;;4151693;28;20111;-72
2022/04/18 09:16:16;;;;;;;0.00;0.00;;;13.80;53.90;;;;;;4165999;28;20049;-72
2022/04/18 09:18:44;;;;;;;0.00;0.00;;;13.90;53.90;;;;;;4154315;28;20125;-75
2022/04/18 09:21:20;;;;;;;0.00;0.00;;;13.90;53.50;;;;;;4128122;28;20369;-71
2022/04/18 09:23:44;;;;;;;0.00;0.00;;;13.80;53.80;;;;;;4155805;28;20042;-72
2022/04/18 09:26:17;;;;;;;0.00;0.00;;;13.50;53.30;;;;;;4152944;28;20038;-71
2022/04/18 09:28:42;;;;;;;0.00;0.00;;;13.60;53.20;;;;;;4165532;28;20531;-70
2022/04/18 09:31:19;;;;;;;0.00;0.00;;;13.20;52.40;;;;;;4138092;28;20120;-73
2022/04/18 09:33:45;;;;;;;0.00;0.00;;;12.90;53.20;;;;;;4138317;28;20481;-75
2022/04/18 09:36:21;;;;;;;0.00;0.00;;;12.90;53.50;;;;;;4138009;28;20078;-72
2022/04/18 09:38:44;;;;;;;0.00;0.00;;;13.20;54.90;;;;;;4137473;28;20050;-70
2022/04/18 09:41:29;;;;;;;0.00;0.00;;;13.30;54.10;;;;;;4127015;28;20093;-71
2022/04/18 09:43:56;;;;;;;0.00;0.00;;;13.40;54.30;;;;;;4139125;28;20435;-71
2022/04/18 09:46:28;;;;;;;0.00;0.00;;;13.90;54.10;;;;;;4138963;28;20045;-70
2022/04/18 09:49:13;;;;;;;0.00;0.00;;;13.80;53.80;;;;;;4164333;28;20108;-69
2022/04/18 09:51:43;;;;;;;0.00;0.00;;;13.60;53.90;;;;;;4151494;28;20096;-70
2022/04/18 09:54:07;;;;;;;0.00;0.00;;;13.80;54.10;;;;;;4137746;28;20137;-71
2022/04/18 09:56:32;;;;;;;0.00;0.00;;;13.80;54.20;;;;;;4151023;28;20076;-71
2022/04/18 09:58:58;;;;;;;0.00;0.00;;;14.00;54.90;;;;;;4150326;28;20413;-73
2022/04/18 10:01:28;;;;;;;0.00;0.00;;;14.30;54.20;;;;;;4137507;28;20542;-72
2022/04/18 10:03:52;;;;;;;0.00;0.00;;;14.30;54.40;;;;;;4150912;28;20452;-71
2022/04/18 10:06:14;;;;;;;0.00;0.00;;;14.50;54.50;;;;;;4137256;28;20049;-74
2022/04/18 10:08:39;;;;;;;0.00;0.00;;;14.60;54.50;;;;;;4150912;28;20053;-71
2022/04/18 10:11:03;;;;;;;0.00;0.00;;;14.90;53.50;;;;;;4122682;28;20061;-70
2022/04/18 10:13:30;;;;;;;0.00;0.00;;;15.10;52.90;;;;;;4137337;28;20413;-72
2022/04/18 10:15:58;;;;;;;0.00;0.00;;;14.90;51.60;;;;;;4136941;28;20050;-70
2022/04/18 10:18:23;;;;;;;0.00;0.00;;;14.50;52.30;;;;;;4123952;28;20077;-71
2022/04/18 10:21:04;;;;;;;0.00;0.00;;;14.70;52.50;;;;;;4137160;28;20050;-71
2022/04/18 10:23:57;;;;;;;0.00;0.00;;;15.00;52.60;;;;;;4137352;28;20108;-69
2022/04/18 10:26:34;;;;;;;0.00;0.00;;;15.10;53.10;;;;;;4150762;28;20088;-72
2022/04/18 10:29:03;;;;;;;0.00;0.00;;;15.00;52.60;;;;;;4150249;28;20061;-69
2022/04/18 10:31:34;;;;;;;0.00;0.00;;;14.60;52.50;;;;;;4137324;28;20050;-70
2022/04/18 10:33:57;;;;;;;0.00;0.00;;;14.20;52.80;;;;;;4150509;28;20045;-70
2022/04/18 10:36:32;;;;;;;0.00;0.00;;;14.00;53.80;;;;;;4123441;28;20053;-71
2022/04/18 10:39:00;;;;;;;0.00;0.00;;;14.20;54.60;;;;;;4136214;28;20114;-70
2022/04/18 10:41:40;;;;;;;0.00;0.00;;;14.00;54.60;;;;;;4136918;28;20042;-73
2022/04/18 10:44:08;;;;;;;0.00;0.00;;;14.10;55.50;;;;;;4164359;28;20054;-70
2022/04/18 10:46:33;;;;;;;0.00;0.00;;;14.30;55.90;;;;;;4137413;28;20046;-72
2022/04/18 10:49:15;;;;;;;0.00;0.00;;;14.70;55.40;;;;;;4123231;28;20090;-74
2022/04/18 10:51:43;;;;;;;0.00;0.00;;;15.10;54.50;;;;;;4136969;28;20046;-71
2022/04/18 10:54:31;;;;;;;0.00;0.00;;;14.90;54.10;;;;;;4137075;28;20084;-72
2022/04/18 10:57:11;;;;;;;0.00;0.00;;;14.90;53.80;;;;;;4150106;28;20049;-73
2022/04/18 10:59:42;;;;;;;0.00;0.00;;;14.70;54.40;;;;;;4163863;28;20057;-72
2022/04/18 11:02:09;;;;;;;0.00;0.00;;;14.50;52.80;;;;;;4136885;28;20074;-73
2022/04/18 11:04:40;;;;;;;0.00;0.00;;;14.20;54.20;;;;;;4150527;28;20041;-70
2022/04/18 11:07:09;;;;;;;0.00;0.00;;;14.30;54.70;;;;;;4150017;28;20105;-72
2022/04/18 11:09:52;;;;;;;0.00;0.00;;;14.60;54.70;;;;;;4123645;28;20547;-72
2022/04/18 11:12:17;;;;;;;0.00;0.00;;;15.10;53.80;;;;;;4136156;28;20564;-72
2022/04/18 11:15:00;;;;;;;0.00;0.00;;;15.20;55.00;;;;;;4137006;28;20058;-71
2022/04/18 11:17:37;;;;;;;0.00;0.00;;;15.00;53.90;;;;;;4149300;28;20046;-73
2022/04/18 11:20:35;;;;;;;0.00;0.00;;;15.00;54.40;;;;;;4150365;28;20050;-72
2022/04/18 11:23:27;;;;;;;0.00;0.00;;;14.90;54.30;;;;;;4150063;28;20479;-71
2022/04/18 11:25:58;;;;;;;0.00;0.00;;;14.90;55.40;;;;;;4126353;28;20117;-72
2022/04/18 11:28:35;;;;;;;0.00;0.00;;;15.30;55.00;;;;;;4153536;28;20507;-72
2022/04/18 11:30:57;;;;;;;0.00;0.00;;;15.50;54.30;;;;;;4139650;28;20136;-73
2022/04/18 11:33:22;;;;;;;0.00;0.00;;;15.50;54.40;;;;;;4167561;28;20100;-71
2022/04/18 11:35:44;;;;;;;0.00;0.00;;;15.70;55.70;;;;;;4153624;28;20038;-71
2022/04/18 11:38:10;;;;;;;0.00;0.00;;;16.00;55.30;;;;;;4153362;28;20104;-72
2022/04/18 11:40:36;;;;;;;0.00;0.00;;;16.20;54.20;;;;;;4139558;28;20472;-75
2022/04/18 11:43:01;;;;;;;0.00;0.00;;;16.40;54.30;;;;;;4126388;28;20109;-71
2022/04/18 11:45:29;;;;;;;0.00;0.00;;;16.60;54.40;;;;;;4126270;28;20069;-73
2022/04/18 11:47:53;;;;;;;0.00;0.00;;;16.70;53.30;;;;;;4153120;28;20046;-70
2022/04/18 11:50:26;;;;;;;0.00;0.00;;;16.80;52.60;;;;;;4153203;28;20046;-71
2022/04/18 11:52:49;;;;;;;0.00;0.00;;;17.00;52.00;;;;;;4152807;28;20477;-72
2022/04/18 11:55:17;;;;;;;0.00;0.00;;;17.10;51.30;;;;;;4126285;28;20052;-72
2022/04/18 11:57:41;;;;;;;0.00;0.00;;;17.20;51.10;;;;;;4139354;28;20133;-71
2022/04/18 12:00:12;;;;;;;0.00;0.00;;;17.30;51.30;;;;;;4139192;28;20042;-73
2022/04/18 12:08:00;;;;;;;0.00;0.00;;;17.50;50.90;;;;;;4140164;28;20054;-72
2022/04/18 12:10:25;;;;;;;0.00;0.00;;;17.60;50.30;;;;;;4152924;28;20050;-71
2022/04/18 12:12:52;;;;;;;0.00;0.00;;;17.70;49.80;;;;;;4166041;28;20097;-70
2022/04/18 12:15:14;;;;;;;0.00;0.00;;;17.70;49.60;;;;;;4152737;28;20045;-70
2022/04/18 12:17:36;;;;;;;0.00;0.00;;;17.80;49.70;;;;;;4125886;28;20072;-71
2022/04/18 12:20:17;;;;;;;0.00;0.00;;;17.80;49.60;;;;;;4139186;28;20093;-73
2022/04/18 12:22:41;;;;;;;0.00;0.00;;;17.80;47.90;;;;;;4139007;28;20100;-72
2022/04/18 12:25:04;;;;;;;0.00;0.00;;;17.90;47.70;;;;;;4138938;28;20073;-70
2022/04/18 12:27:39;;;;;;;0.00;0.00;;;18.00;47.60;;;;;;4152774;28;20041;-71
2022/04/18 12:30:01;;;;;;;0.00;0.00;;;18.10;47.90;;;;;;4152662;28;20052;-72
2022/04/18 12:32:26;;;;;;;0.00;0.00;;;18.10;47.80;;;;;;4152611;28;20046;-72
2022/04/18 12:34:48;;;;;;;0.00;0.00;;;18.20;47.50;;;;;;4124528;28;20062;-71
2022/04/18 12:37:10;;;;;;;0.00;0.00;;;18.40;47.60;;;;;;4166558;28;20052;-71
2022/04/18 12:39:32;;;;;;;0.00;0.00;;;18.50;47.40;;;;;;4139052;28;20038;-72
2022/04/18 12:42:05;;;;;;;0.00;0.00;;;18.60;47.10;;;;;;4165930;28;20041;-73
2022/04/18 12:44:30;;;;;;;0.00;0.00;;;18.50;45.80;;;;;;4152537;28;20048;-72
2022/04/18 12:46:52;;;;;;;0.00;0.00;;;18.50;47.60;;;;;;4138284;28;20042;-73
2022/04/18 12:49:17;;;;;;;0.00;0.00;;;18.50;48.50;;;;;;4152658;28;20060;-71
2022/04/18 12:51:52;;;;;;;0.00;0.00;;;18.60;49.30;;;;;;4138683;28;20038;-74
2022/04/18 12:54:22;;;;;;;0.00;0.00;;;18.80;48.40;;;;;;4152346;28;20050;-73
2022/04/18 12:56:48;;;;;;;0.00;0.00;;;18.80;47.70;;;;;;4138202;28;20046;-73
2022/04/18 12:59:13;;;;;;;0.00;0.00;;;18.80;49.10;;;;;;4138498;28;20081;-72
2022/04/18 13:01:36;;;;;;;0.00;0.00;;;18.80;49.60;;;;;;4165802;28;20099;-73
2022/04/18 13:03:59;;;;;;;0.00;0.00;;;18.90;49.20;;;;;;4152257;28;20046;-72
2022/04/18 13:06:28;;;;;;;0.00;0.00;;;18.90;48.30;;;;;;4138332;28;20042;-73
2022/04/18 13:09:06;;;;;;;0.00;0.00;;;19.00;48.50;;;;;;4151632;28;20201;-74
2022/04/18 13:11:39;;;;;;;0.00;0.00;;;19.00;49.60;;;;;;4151716;28;20053;-72
2022/04/18 13:14:05;;;;;;;0.00;0.00;;;19.10;48.20;;;;;;4165623;28;20052;-71
2022/04/18 13:16:29;;;;;;;0.00;0.00;;;19.00;47.50;;;;;;4138497;28;20039;-71
2022/04/18 13:19:01;;;;;;;0.00;0.00;;;19.00;48.10;;;;;;4137991;28;20118;-73
2022/04/18 13:21:23;;;;;;;0.00;0.00;;;19.00;46.60;;;;;;4165656;28;20041;-72
2022/04/18 13:23:45;;;;;;;0.00;0.00;;;19.00;46.40;;;;;;4138190;28;20042;-71